Time;durP1;ratioP1;P1;durP2;ratioP2;P2;SDS_P1;SDS_P2;PMS_P1;PMS_P2;Temp;Humidity;BMP_temperature;BMP_pressure;BME280_temperature;BME280_humidity;BME280_pressure;Samples;Min_cycle;Max_cycle;Signal;HPM_P1;HPM_P2
2023/08/01 00:00:08;;;;;;;8.63;2.92;;;;;;;;;;5097406;28;20324;-29
2023/08/01 00:02:34;;;;;;;6.57;2.50;;;;;;;;;;5096778;28;20137;-28
2023/08/01 00:05:00;;;;;;;5.28;2.83;;;;;;;;;;5097425;28;20026;-30
2023/08/01 00:07:28;;;;;;;6.63;2.72;;;;;;;;;;5096977;28;20116;-26
2023/08/01 00:09:54;;;;;;;8.90;4.30;;;;;;;;;;5096004;28;20024;-27
2023/08/01 00:12:20;;;;;;;5.53;2.88;;;;;;;;;;5097271;28;20031;-30
2023/08/01 00:14:46;;;;;;;7.30;2.80;;;;;;;;;;5096871;28;20081;-29
2023/08/01 00:17:13;;;;;;;2.40;2.20;;;;;;;;;;5097031;28;20358;-31
2023/08/01 00:19:39;;;;;;;5.68;2.58;;;;;;;;;;5096803;28;20393;-30
2023/08/01 00:22:05;;;;;;;4.72;2.97;;;;;;;;;;5096360;28;20056;-30
2023/08/01 00:24:31;;;;;;;6.88;2.72;;;;;;;;;;5097466;28;20085;-27
2023/08/01 00:26:57;;;;;;;3.65;2.80;;;;;;;;;;5096619;28;20454;-30
2023/08/01 00:29:23;;;;;;;3.95;2.35;;;;;;;;;;5096863;28;20329;-28
2023/08/01 00:31:49;;;;;;;6.30;2.60;;;;;;;;;;5096495;28;20035;-31
2023/08/01 00:34:16;;;;;;;7.38;2.63;;;;;;;;;;5096401;28;20443;-31
2023/08/01 00:36:42;;;;;;;6.13;2.85;;;;;;;;;;5096370;28;20028;-32
2023/08/01 00:39:09;;;;;;;4.13;2.45;;;;;;;;;;5096662;28;20457;-29
2023/08/01 00:41:35;;;;;;;3.50;2.67;;;;;;;;;;5096711;28;20035;-28
2023/08/01 00:44:01;;;;;;;5.20;2.88;;;;;;;;;;5097052;28;20020;-26
2023/08/01 00:46:28;;;;;;;3.75;2.38;;;;;;;;;;5096537;28;20024;-31
2023/08/01 00:48:57;;;;;;;4.82;2.55;;;;;;;;;;5096200;28;20024;-28
2023/08/01 00:51:24;;;;;;;2.75;2.55;;;;;;;;;;5096106;28;20031;-30
2023/08/01 00:53:51;;;;;;;4.90;2.67;;;;;;;;;;5096115;28;20024;-29
2023/08/01 00:56:17;;;;;;;3.85;2.30;;;;;;;;;;5096354;28;20024;-29
2023/08/01 00:58:44;;;;;;;3.65;2.90;;;;;;;;;;5096250;28;20032;-29
2023/08/01 01:01:10;;;;;;;5.50;2.47;;;;;;;;;;5095997;28;20020;-26
2023/08/01 01:03:36;;;;;;;9.45;2.75;;;;;;;;;;5095628;28;20040;-26
2023/08/01 01:06:10;;;;;;;4.78;3.00;;;;;;;;;;5095883;28;20024;-28
2023/08/01 01:08:36;;;;;;;6.15;2.92;;;;;;;;;;5095896;28;20078;-27
2023/08/01 01:11:04;;;;;;;3.83;2.72;;;;;;;;;;5096349;28;20039;-30
2023/08/01 01:13:30;;;;;;;3.95;2.92;;;;;;;;;;5095648;28;20032;-29
2023/08/01 01:15:56;;;;;;;8.65;2.40;;;;;;;;;;5095702;28;20028;-28
2023/08/01 01:18:22;;;;;;;4.70;2.85;;;;;;;;;;5096118;28;20477;-27
2023/08/01 01:20:49;;;;;;;4.35;2.78;;;;;;;;;;5095618;28;20023;-33
2023/08/01 01:23:15;;;;;;;3.90;2.58;;;;;;;;;;5095540;28;20035;-29
2023/08/01 01:25:42;;;;;;;3.85;2.40;;;;;;;;;;5095501;28;20047;-31
2023/08/01 01:28:08;;;;;;;3.65;2.67;;;;;;;;;;5095503;28;20332;-34
2023/08/01 01:30:35;;;;;;;5.10;2.72;;;;;;;;;;5095417;28;20335;-29
2023/08/01 01:33:01;;;;;;;3.35;2.55;;;;;;;;;;5095347;28;20336;-28
2023/08/01 01:35:27;;;;;;;6.35;2.38;;;;;;;;;;5094702;28;20032;-28
2023/08/01 01:37:53;;;;;;;2.95;2.25;;;;;;;;;;5095648;28;20028;-26
2023/08/01 01:40:20;;;;;;;3.40;2.85;;;;;;;;;;5095806;28;20074;-28
2023/08/01 01:42:46;;;;;;;10.27;2.83;;;;;;;;;;5095155;28;20028;-33
2023/08/01 01:45:12;;;;;;;4.85;2.38;;;;;;;;;;5095464;28;20091;-30
2023/08/01 01:47:38;;;;;;;2.42;2.22;;;;;;;;;;5095912;28;20024;-27
2023/08/01 01:50:05;;;;;;;3.65;2.83;;;;;;;;;;5095691;28;20030;-27
2023/08/01 01:52:32;;;;;;;5.97;2.85;;;;;;;;;;5094062;28;20478;-29
2023/08/01 01:54:59;;;;;;;4.03;2.60;;;;;;;;;;5095110;28;20024;-31
2023/08/01 01:57:25;;;;;;;5.85;2.40;;;;;;;;;;5094845;28;20032;-29
2023/08/01 01:59:51;;;;;;;2.90;2.40;;;;;;;;;;5095562;28;20016;-29
2023/08/01 02:02:17;;;;;;;2.65;2.20;;;;;;;;;;5094645;28;20048;-28
2023/08/01 02:04:43;;;;;;;3.83;2.65;;;;;;;;;;5094946;28;20020;-29
2023/08/01 02:07:09;;;;;;;6.32;2.63;;;;;;;;;;5095132;28;20056;-32
2023/08/01 02:09:35;;;;;;;4.97;2.92;;;;;;;;;;5095101;28;20039;-31
2023/08/01 02:12:03;;;;;;;3.47;2.35;;;;;;;;;;5094754;28;20028;-34
2023/08/01 02:14:30;;;;;;;7.72;4.07;;;;;;;;;;5094797;28;20473;-31
2023/08/01 02:16:56;;;;;;;5.60;2.58;;;;;;;;;;5094664;28;20032;-34
2023/08/01 02:19:22;;;;;;;5.25;2.67;;;;;;;;;;5094983;28;20457;-31
2023/08/01 02:21:48;;;;;;;4.90;2.65;;;;;;;;;;5093708;28;20051;-31
2023/08/01 02:24:14;;;;;;;2.88;2.40;;;;;;;;;;5094623;28;20027;-27
2023/08/01 02:26:40;;;;;;;3.85;2.20;;;;;;;;;;5095202;28;20027;-30
2023/08/01 02:29:06;;;;;;;5.00;2.67;;;;;;;;;;5094692;28;20373;-32
2023/08/01 02:31:32;;;;;;;9.18;2.65;;;;;;;;;;5094634;28;20020;-31
2023/08/01 02:33:59;;;;;;;2.38;2.17;;;;;;;;;;5094594;28;20016;-27
2023/08/01 02:36:25;;;;;;;4.63;2.50;;;;;;;;;;5094872;28;20059;-28
2023/08/01 02:38:51;;;;;;;6.05;2.85;;;;;;;;;;5095049;28;20028;-28
2023/08/01 02:41:17;;;;;;;4.57;2.78;;;;;;;;;;5094585;28;20082;-28
2023/08/01 02:43:43;;;;;;;5.68;2.45;;;;;;;;;;5094577;28;20425;-29
2023/08/01 02:46:10;;;;;;;4.38;2.40;;;;;;;;;;5096281;28;20028;-32
2023/08/01 02:48:36;;;;;;;4.25;2.35;;;;;;;;;;5098785;28;20028;-32
2023/08/01 02:51:02;;;;;;;3.47;2.28;;;;;;;;;;5099063;28;20046;-31
2023/08/01 02:53:28;;;;;;;2.85;2.33;;;;;;;;;;5098893;28;20020;-28
2023/08/01 02:55:54;;;;;;;4.10;2.50;;;;;;;;;;5098417;28;20029;-29
2023/08/01 02:58:20;;;;;;;3.50;2.22;;;;;;;;;;5098252;28;20028;-34
2023/08/01 03:00:47;;;;;;;3.20;2.38;;;;;;;;;;5098592;28;20020;-28
2023/08/01 03:03:13;;;;;;;3.17;2.20;;;;;;;;;;5098153;28;20059;-30
2023/08/01 03:05:39;;;;;;;5.10;2.28;;;;;;;;;;5098262;28;20076;-31
2023/08/01 03:08:06;;;;;;;8.77;2.47;;;;;;;;;;5098117;28;20024;-29
2023/08/01 03:10:32;;;;;;;2.78;2.28;;;;;;;;;;5098111;28;20028;-31
2023/08/01 03:12:58;;;;;;;3.13;2.10;;;;;;;;;;5098271;28;20020;-27
2023/08/01 03:15:24;;;;;;;3.25;2.17;;;;;;;;;;5098056;28;20360;-27
2023/08/01 03:17:50;;;;;;;2.28;2.10;;;;;;;;;;5097893;28;20027;-29
2023/08/01 03:20:16;;;;;;;4.93;3.55;;;;;;;;;;5098201;28;20020;-32
2023/08/01 03:22:42;;;;;;;4.63;2.40;;;;;;;;;;5096857;28;20023;-30
2023/08/01 03:25:09;;;;;;;4.72;2.53;;;;;;;;;;5098389;28;20024;-31
2023/08/01 03:27:35;;;;;;;7.10;4.85;;;;;;;;;;5097818;28;20520;-29
2023/08/01 03:30:02;;;;;;;3.13;2.67;;;;;;;;;;5097710;28;20051;-27
2023/08/01 03:32:28;;;;;;;2.70;2.50;;;;;;;;;;5097907;28;20034;-26
2023/08/01 03:34:54;;;;;;;3.00;2.30;;;;;;;;;;5097699;28;20020;-26
2023/08/01 03:37:20;;;;;;;5.80;4.13;;;;;;;;;;5097527;28;20059;-27
2023/08/01 03:39:46;;;;;;;4.28;2.10;;;;;;;;;;5097551;28;20020;-28
2023/08/01 03:42:12;;;;;;;4.30;2.10;;;;;;;;;;5097699;28;20027;-31
2023/08/01 03:44:39;;;;;;;2.97;2.33;;;;;;;;;;5097703;28;20024;-31
2023/08/01 03:47:06;;;;;;;3.03;2.20;;;;;;;;;;5097368;28;20032;-32
2023/08/01 03:49:32;;;;;;;3.75;2.55;;;;;;;;;;5097412;28;20024;-29
2023/08/01 03:51:58;;;;;;;3.00;2.58;;;;;;;;;;5097264;28;20027;-28
2023/08/01 03:54:24;;;;;;;2.08;1.98;;;;;;;;;;5097209;28;20044;-28
2023/08/01 03:56:51;;;;;;;4.47;2.60;;;;;;;;;;5096792;28;20044;-29
2023/08/01 03:59:18;;;;;;;3.22;2.17;;;;;;;;;;5097607;28;20024;-29
2023/08/01 04:01:44;;;;;;;6.53;2.72;;;;;;;;;;5096443;28;20085;-29
2023/08/01 04:04:11;;;;;;;2.67;2.10;;;;;;;;;;5096939;28;20089;-30
2023/08/01 04:06:37;;;;;;;2.83;2.22;;;;;;;;;;5096959;28;20134;-30
2023/08/01 04:09:03;;;;;;;5.00;2.33;;;;;;;;;;5097082;28;20020;-33
2023/08/01 04:11:30;;;;;;;3.63;2.60;;;;;;;;;;5096882;28;20052;-30
2023/08/01 04:13:56;;;;;;;2.95;2.13;;;;;;;;;;5096971;28;20046;-32
2023/08/01 04:16:22;;;;;;;2.35;2.05;;;;;;;;;;5096732;28;20348;-29
2023/08/01 04:18:49;;;;;;;1.77;1.67;;;;;;;;;;5096835;28;20028;-29
2023/08/01 04:21:15;;;;;;;2.63;2.17;;;;;;;;;;5096536;28;20027;-26
2023/08/01 04:23:41;;;;;;;6.50;2.30;;;;;;;;;;5096764;28;20343;-30
2023/08/01 04:26:07;;;;;;;3.40;2.58;;;;;;;;;;5097149;28;20028;-32
2023/08/01 04:28:34;;;;;;;2.50;2.30;;;;;;;;;;5096456;28;20032;-32
2023/08/01 04:31:00;;;;;;;2.20;2.00;;;;;;;;;;5096717;28;20082;-30
2023/08/01 04:33:27;;;;;;;2.35;2.15;;;;;;;;;;5096551;28;20389;-31
2023/08/01 04:35:53;;;;;;;3.22;2.28;;;;;;;;;;5096392;28;20081;-33
2023/08/01 04:38:19;;;;;;;2.40;2.10;;;;;;;;;;5096505;28;20039;-29
2023/08/01 04:40:45;;;;;;;3.60;2.33;;;;;;;;;;5096276;28;20031;-27
2023/08/01 04:43:12;;;;;;;5.20;2.10;;;;;;;;;;5096308;28;20020;-28
2023/08/01 04:45:38;;;;;;;2.50;2.20;;;;;;;;;;5096367;28;20442;-29
2023/08/01 04:48:04;;;;;;;3.50;2.35;;;;;;;;;;5096368;28;20327;-30
2023/08/01 04:50:30;;;;;;;2.78;2.58;;;;;;;;;;5096276;28;20093;-33
2023/08/01 04:52:56;;;;;;;5.15;3.33;;;;;;;;;;5095931;28;20103;-31
2023/08/01 04:55:23;;;;;;;5.35;3.03;;;;;;;;;;5096197;28;20080;-33
2023/08/01 04:57:49;;;;;;;2.75;2.10;;;;;;;;;;5096103;28;20028;-30
2023/08/01 05:00:16;;;;;;;4.43;2.55;;;;;;;;;;5096082;28;20374;-32
2023/08/01 05:02:42;;;;;;;2.72;2.35;;;;;;;;;;5095739;28;20474;-31
2023/08/01 05:05:08;;;;;;;2.63;2.22;;;;;;;;;;5096059;28;20020;-29
2023/08/01 05:07:34;;;;;;;2.55;2.35;;;;;;;;;;5096175;28;20443;-27
2023/08/01 05:10:00;;;;;;;4.40;2.45;;;;;;;;;;5095504;28;20059;-32
2023/08/01 05:12:26;;;;;;;3.17;2.65;;;;;;;;;;5095845;28;20028;-29
2023/08/01 05:14:52;;;;;;;3.15;2.30;;;;;;;;;;5095605;28;20059;-30
2023/08/01 05:17:19;;;;;;;5.32;2.88;;;;;;;;;;5095702;28;20028;-35
2023/08/01 05:19:45;;;;;;;3.85;2.80;;;;;;;;;;5095762;28;20039;-30
2023/08/01 05:22:11;;;;;;;3.30;2.67;;;;;;;;;;5095373;28;20451;-27
2023/08/01 05:24:37;;;;;;;2.95;2.70;;;;;;;;;;5096205;28;20103;-29
2023/08/01 05:27:03;;;;;;;5.50;2.65;;;;;;;;;;5095345;28;20038;-29
2023/08/01 05:29:29;;;;;;;6.97;2.90;;;;;;;;;;5095611;28;20105;-32
2023/08/01 05:31:55;;;;;;;6.70;2.83;;;;;;;;;;5095228;28;20023;-35
2023/08/01 05:34:21;;;;;;;7.20;3.45;;;;;;;;;;5095285;28;20071;-33
2023/08/01 05:36:48;;;;;;;2.72;2.53;;;;;;;;;;5095188;28;20099;-33
2023/08/01 05:39:14;;;;;;;3.40;2.70;;;;;;;;;;5094606;28;20028;-31
2023/08/01 05:41:40;;;;;;;8.23;2.97;;;;;;;;;;5095198;28;20023;-29
2023/08/01 05:44:07;;;;;;;3.97;2.55;;;;;;;;;;5094101;28;20016;-29
2023/08/01 05:46:33;;;;;;;3.33;2.38;;;;;;;;;;5095019;28;20024;-33
2023/08/01 05:48:59;;;;;;;7.78;2.83;;;;;;;;;;5095682;28;20035;-31
2023/08/01 05:51:25;;;;;;;5.72;2.78;;;;;;;;;;5095297;28;20051;-30
2023/08/01 05:53:51;;;;;;;3.50;2.38;;;;;;;;;;5094935;28;20026;-30
2023/08/01 05:56:17;;;;;;;2.85;2.40;;;;;;;;;;5094884;28;20032;-33
2023/08/01 05:58:43;;;;;;;4.57;3.05;;;;;;;;;;5094734;28;20024;-30
2023/08/01 06:01:11;;;;;;;3.22;2.15;;;;;;;;;;5094754;28;20103;-28
2023/08/01 06:03:38;;;;;;;3.45;2.60;;;;;;;;;;5094521;28;20381;-33
2023/08/01 06:06:04;;;;;;;4.15;2.50;;;;;;;;;;5094623;28;20023;-31
2023/08/01 06:08:31;;;;;;;5.35;3.00;;;;;;;;;;5094708;28;20032;-30
2023/08/01 06:10:58;;;;;;;4.43;3.22;;;;;;;;;;5094770;28;20031;-31
2023/08/01 06:13:24;;;;;;;5.72;2.83;;;;;;;;;;5094422;28;20020;-30
2023/08/01 06:15:50;;;;;;;3.10;2.80;;;;;;;;;;5094798;28;20024;-32
2023/08/01 06:18:16;;;;;;;8.05;3.80;;;;;;;;;;5094694;28;20416;-33
2023/08/01 06:20:42;;;;;;;4.55;3.30;;;;;;;;;;5094218;28;20034;-30
2023/08/01 06:23:08;;;;;;;13.70;3.15;;;;;;;;;;5094408;28;20024;-34
2023/08/01 06:25:34;;;;;;;4.35;2.63;;;;;;;;;;5094518;28;20099;-29
2023/08/01 06:28:00;;;;;;;5.13;2.58;;;;;;;;;;5094672;28;20024;-27
2023/08/01 06:30:27;;;;;;;5.35;2.78;;;;;;;;;;5094891;28;20089;-28
2023/08/01 06:32:53;;;;;;;7.18;2.75;;;;;;;;;;5095177;28;20024;-33
2023/08/01 06:35:19;;;;;;;3.63;3.03;;;;;;;;;;5094458;28;20031;-33
2023/08/01 06:37:45;;;;;;;3.90;2.80;;;;;;;;;;5094488;28;20336;-29
2023/08/01 06:40:12;;;;;;;5.00;3.88;;;;;;;;;;5094249;28;20044;-31
2023/08/01 06:42:40;;;;;;;3.67;2.72;;;;;;;;;;5093126;28;20415;-32
2023/08/01 06:45:07;;;;;;;6.32;3.20;;;;;;;;;;5094183;28;20028;-30
2023/08/01 06:47:33;;;;;;;7.60;4.50;;;;;;;;;;5094362;28;20024;-31
2023/08/01 06:49:59;;;;;;;4.95;3.08;;;;;;;;;;5094133;28;20026;-30
2023/08/01 06:52:25;;;;;;;9.05;3.83;;;;;;;;;;5094220;28;20038;-29
2023/08/01 06:54:51;;;;;;;9.80;3.47;;;;;;;;;;5094121;28;20024;-33
2023/08/01 06:57:17;;;;;;;10.68;4.15;;;;;;;;;;5094125;28;20032;-32
2023/08/01 06:59:44;;;;;;;7.03;3.47;;;;;;;;;;5094550;28;20016;-27
2023/08/01 07:02:10;;;;;;;5.85;3.20;;;;;;;;;;5094086;28;20422;-28
2023/08/01 07:04:37;;;;;;;17.08;3.30;;;;;;;;;;5094445;28;20032;-31
2023/08/01 07:07:04;;;;;;;7.35;3.25;;;;;;;;;;5094626;28;20035;-29
2023/08/01 07:09:30;;;;;;;6.20;3.65;;;;;;;;;;5094843;28;20032;-30
2023/08/01 07:11:57;;;;;;;14.25;5.43;;;;;;;;;;5093042;28;20431;-32
2023/08/01 07:14:23;;;;;;;7.00;4.55;;;;;;;;;;5094675;28;20349;-29
2023/08/01 07:16:49;;;;;;;14.20;3.42;;;;;;;;;;5094265;28;20028;-30
2023/08/01 07:19:16;;;;;;;17.50;6.28;;;;;;;;;;5094080;28;20059;-31
2023/08/01 07:21:44;;;;;;;19.98;4.30;;;;;;;;;;5094410;28;20052;-35
2023/08/01 07:24:10;;;;;;;11.32;4.85;;;;;;;;;;5094287;28;20024;-29
2023/08/01 07:26:36;;;;;;;11.07;3.95;;;;;;;;;;5093095;28;20020;-28
2023/08/01 07:29:02;;;;;;;16.90;3.83;;;;;;;;;;5093928;28;20031;-30
2023/08/01 07:31:29;;;;;;;8.57;4.10;;;;;;;;;;5094028;28;20351;-31
2023/08/01 07:33:55;;;;;;;10.75;3.78;;;;;;;;;;5096493;28;20039;-31
2023/08/01 07:36:21;;;;;;;9.55;3.58;;;;;;;;;;5097716;28;20355;-28
2023/08/01 07:38:47;;;;;;;8.88;3.53;;;;;;;;;;5097553;28;20103;-30
2023/08/01 07:41:13;;;;;;;10.18;3.58;;;;;;;;;;5097231;28;20031;-32
2023/08/01 07:43:41;;;;;;;3.90;3.40;;;;;;;;;;5097976;28;20280;-33
2023/08/01 07:46:09;;;;;;;11.18;4.10;;;;;;;;;;5097455;28;20082;-31
2023/08/01 07:48:35;;;;;;;12.57;4.88;;;;;;;;;;5097341;28;20020;-32
2023/08/01 07:51:03;;;;;;;16.63;3.85;;;;;;;;;;5097267;28;20103;-29
2023/08/01 07:53:29;;;;;;;4.55;3.13;;;;;;;;;;5097393;28;20050;-31
2023/08/01 07:55:55;;;;;;;4.13;3.22;;;;;;;;;;5097568;28;20050;-34
2023/08/01 07:58:21;;;;;;;8.98;3.47;;;;;;;;;;5097261;28;20027;-29
2023/08/01 08:00:48;;;;;;;7.32;3.78;;;;;;;;;;5097368;28;20028;-35
2023/08/01 08:03:14;;;;;;;5.05;3.50;;;;;;;;;;5096799;28;20032;-31
2023/08/01 08:05:40;;;;;;;5.45;3.25;;;;;;;;;;5097336;28;20024;-34
2023/08/01 08:08:06;;;;;;;6.45;3.97;;;;;;;;;;5096159;28;20028;-32
2023/08/01 08:10:33;;;;;;;7.32;3.53;;;;;;;;;;5096825;28;20027;-34
2023/08/01 08:12:59;;;;;;;6.57;3.95;;;;;;;;;;5096807;28;20058;-33
2023/08/01 08:15:26;;;;;;;7.72;3.25;;;;;;;;;;5096801;28;20039;-28
2023/08/01 08:17:52;;;;;;;8.50;4.22;;;;;;;;;;5096971;28;20032;-27
2023/08/01 08:20:18;;;;;;;5.10;3.70;;;;;;;;;;5095739;28;20023;-27
2023/08/01 08:22:44;;;;;;;8.52;4.30;;;;;;;;;;5096780;28;20031;-29
2023/08/01 08:25:10;;;;;;;5.45;3.42;;;;;;;;;;5096842;28;20343;-35
2023/08/01 08:27:36;;;;;;;9.43;4.50;;;;;;;;;;5095488;28;20024;-34
2023/08/01 08:30:02;;;;;;;5.45;4.05;;;;;;;;;;5096414;28;20024;-29
2023/08/01 08:32:29;;;;;;;8.77;3.83;;;;;;;;;;5096531;28;20355;-31
2023/08/01 08:34:55;;;;;;;6.95;3.10;;;;;;;;;;5096444;28;20482;-28
2023/08/01 08:37:21;;;;;;;8.45;3.28;;;;;;;;;;5096308;28;20112;-31
2023/08/01 08:39:47;;;;;;;5.45;3.63;;;;;;;;;;5096320;28;20072;-28
2023/08/01 08:42:13;;;;;;;7.32;3.25;;;;;;;;;;5096767;28;20077;-33
2023/08/01 08:44:44;;;;;;;6.55;3.42;;;;;;;;;;5096118;28;20024;-28
2023/08/01 08:47:12;;;;;;;7.30;3.93;;;;;;;;;;5096565;28;20099;-33
2023/08/01 08:49:39;;;;;;;7.57;4.53;;;;;;;;;;5096065;28;20409;-31
2023/08/01 08:52:05;;;;;;;11.20;4.63;;;;;;;;;;5095947;28;20124;-31
2023/08/01 08:54:32;;;;;;;4.03;2.83;;;;;;;;;;5095929;28;20027;-32
2023/08/01 08:56:59;;;;;;;7.13;3.85;;;;;;;;;;5095966;28;20028;-32
2023/08/01 08:59:25;;;;;;;7.28;3.83;;;;;;;;;;5095795;28;20024;-31
2023/08/01 09:01:52;;;;;;;4.25;3.03;;;;;;;;;;5096057;28;20095;-31
2023/08/01 09:04:18;;;;;;;5.20;3.60;;;;;;;;;;5095711;28;20367;-34
2023/08/01 09:06:50;;;;;;;5.20;3.10;;;;;;;;;;5096127;28;20447;-30
2023/08/01 09:09:16;;;;;;;5.45;3.13;;;;;;;;;;5095695;28;20031;-30
2023/08/01 09:11:49;;;;;;;5.85;3.50;;;;;;;;;;5095917;28;20026;-30
2023/08/01 09:14:16;;;;;;;3.53;3.22;;;;;;;;;;5095640;28;20023;-30
2023/08/01 09:16:43;;;;;;;7.18;3.63;;;;;;;;;;5095484;28;20028;-30
2023/08/01 09:19:09;;;;;;;9.70;4.32;;;;;;;;;;5095545;28;20458;-33
2023/08/01 09:21:38;;;;;;;3.58;2.70;;;;;;;;;;5095425;28;20451;-30
2023/08/01 09:24:18;;;;;;;3.75;3.45;;;;;;;;;;5095646;28;20035;-33
2023/08/01 09:26:44;;;;;;;11.57;3.80;;;;;;;;;;5094404;28;20020;-29
2023/08/01 09:29:10;;;;;;;8.27;4.60;;;;;;;;;;5095358;28;20024;-28
2023/08/01 09:31:37;;;;;;;9.20;4.13;;;;;;;;;;5094362;28;20036;-28
2023/08/01 09:34:07;;;;;;;11.85;3.35;;;;;;;;;;5095138;28;20103;-26
2023/08/01 09:36:34;;;;;;;12.93;3.55;;;;;;;;;;5095264;28;20034;-30
2023/08/01 09:39:04;;;;;;;7.70;3.47;;;;;;;;;;5095087;28;20036;-34
2023/08/01 09:41:31;;;;;;;11.68;3.75;;;;;;;;;;5096158;28;20099;-28
2023/08/01 09:43:57;;;;;;;11.82;4.47;;;;;;;;;;5095023;28;20020;-29
2023/08/01 09:46:24;;;;;;;20.00;4.53;;;;;;;;;;5095401;28;20088;-28
2023/08/01 09:48:50;;;;;;;7.50;4.88;;;;;;;;;;5094916;28;20051;-32
2023/08/01 09:51:17;;;;;;;17.77;5.70;;;;;;;;;;5095170;28;20024;-27
2023/08/01 09:53:49;;;;;;;15.95;4.90;;;;;;;;;;5095098;28;20024;-28
2023/08/01 09:56:34;;;;;;;14.68;4.65;;;;;;;;;;5094715;28;20110;-29
2023/08/01 09:59:00;;;;;;;13.35;4.75;;;;;;;;;;5095051;28;20032;-27
2023/08/01 10:01:27;;;;;;;16.65;4.78;;;;;;;;;;5095156;28;20028;-36
2023/08/01 10:03:54;;;;;;;20.55;4.45;;;;;;;;;;5094606;28;20070;-29
2023/08/01 10:06:21;;;;;;;19.17;4.43;;;;;;;;;;5094648;28;20514;-31
2023/08/01 10:08:48;;;;;;;10.98;3.75;;;;;;;;;;5094616;28;20089;-28
2023/08/01 10:11:21;;;;;;;9.18;3.65;;;;;;;;;;5094875;28;20024;-29
2023/08/01 10:13:47;;;;;;;13.38;4.07;;;;;;;;;;5094468;28;20108;-35
2023/08/01 10:16:14;;;;;;;12.93;4.55;;;;;;;;;;5094537;28;20103;-32
2023/08/01 10:18:40;;;;;;;9.00;4.13;;;;;;;;;;5094429;28;20038;-29
2023/08/01 10:21:07;;;;;;;17.65;5.22;;;;;;;;;;5094976;28;20081;-31
2023/08/01 10:23:34;;;;;;;12.93;3.90;;;;;;;;;;5094651;28;20081;-31
2023/08/01 10:26:01;;;;;;;11.73;4.78;;;;;;;;;;5094381;28;20027;-31
2023/08/01 10:28:33;;;;;;;18.13;4.80;;;;;;;;;;5094404;28;20062;-30
2023/08/01 10:31:09;;;;;;;7.18;4.13;;;;;;;;;;5094521;28;20057;-30
2023/08/01 10:33:35;;;;;;;9.85;3.70;;;;;;;;;;5094495;28;20119;-29
2023/08/01 10:36:01;;;;;;;11.82;3.95;;;;;;;;;;5095007;28;20024;-29
2023/08/01 10:38:28;;;;;;;10.00;5.47;;;;;;;;;;5093424;28;20081;-29
2023/08/01 10:40:54;;;;;;;12.32;4.20;;;;;;;;;;5094655;28;20020;-28
2023/08/01 10:43:21;;;;;;;8.75;4.40;;;;;;;;;;5094349;28;20024;-27
2023/08/01 10:45:47;;;;;;;12.07;4.30;;;;;;;;;;5094284;28;20058;-29
2023/08/01 10:48:13;;;;;;;7.68;3.85;;;;;;;;;;5094581;28;20020;-32
2023/08/01 10:50:40;;;;;;;9.27;4.70;;;;;;;;;;5094203;28;20427;-29
2023/08/01 10:53:09;;;;;;;6.82;4.10;;;;;;;;;;5094227;28;20028;-34
2023/08/01 10:55:42;;;;;;;8.93;4.18;;;;;;;;;;5094923;28;20565;-27
2023/08/01 10:58:08;;;;;;;9.07;3.70;;;;;;;;;;5094413;28;20119;-32
2023/08/01 11:00:34;;;;;;;5.50;3.75;;;;;;;;;;5094444;28;20021;-29
2023/08/01 11:03:01;;;;;;;6.88;4.25;;;;;;;;;;5093958;28;20113;-29
2023/08/01 11:05:29;;;;;;;7.35;3.53;;;;;;;;;;5094367;28;20412;-28
2023/08/01 11:07:59;;;;;;;6.80;3.70;;;;;;;;;;5097319;28;20103;-29
2023/08/01 11:10:29;;;;;;;7.18;3.17;;;;;;;;;;5098218;28;20036;-29
2023/08/01 11:12:55;;;;;;;6.68;3.55;;;;;;;;;;5097900;28;20028;-31
2023/08/01 11:15:21;;;;;;;9.27;4.45;;;;;;;;;;5097836;28;20078;-30
2023/08/01 11:17:49;;;;;;;5.97;3.83;;;;;;;;;;5097765;28;20112;-29
2023/08/01 11:20:16;;;;;;;8.52;4.65;;;;;;;;;;5097864;28;20426;-31
2023/08/01 11:22:56;;;;;;;11.80;4.03;;;;;;;;;;5097912;28;20397;-32
2023/08/01 11:25:48;;;;;;;10.35;4.13;;;;;;;;;;5097989;28;20044;-29
2023/08/01 11:28:16;;;;;;;7.97;4.55;;;;;;;;;;5097973;28;20028;-29
2023/08/01 11:30:42;;;;;;;9.32;5.63;;;;;;;;;;5097590;28;20024;-29
2023/08/01 11:33:21;;;;;;;10.57;4.38;;;;;;;;;;5097660;28;20103;-33
2023/08/01 11:35:59;;;;;;;10.18;5.47;;;;;;;;;;5098001;28;20103;-31
2023/08/01 11:38:26;;;;;;;5.68;4.18;;;;;;;;;;5097653;28;20060;-31
2023/08/01 11:40:53;;;;;;;7.05;4.38;;;;;;;;;;5097396;28;20020;-28
2023/08/01 11:43:19;;;;;;;9.45;3.95;;;;;;;;;;5097499;28;20027;-33
2023/08/01 11:45:55;;;;;;;5.60;4.30;;;;;;;;;;5097282;28;20043;-30
2023/08/01 11:48:22;;;;;;;8.93;3.97;;;;;;;;;;5097524;28;20028;-28
2023/08/01 11:50:48;;;;;;;7.30;3.35;;;;;;;;;;5097251;28;20462;-32
2023/08/01 11:53:18;;;;;;;4.43;3.85;;;;;;;;;;5097528;28;20073;-31
2023/08/01 11:55:45;;;;;;;9.93;4.47;;;;;;;;;;5097154;28;20039;-29
2023/08/01 11:58:12;;;;;;;12.88;5.10;;;;;;;;;;5097015;28;20055;-29
2023/08/01 12:00:38;;;;;;;9.75;4.18;;;;;;;;;;5097226;28;20097;-30
2023/08/01 12:03:05;;;;;;;8.02;4.22;;;;;;;;;;5096787;28;20040;-31
2023/08/01 12:05:31;;;;;;;20.48;4.72;;;;;;;;;;5097283;28;20368;-28
2023/08/01 12:08:08;;;;;;;17.23;5.55;;;;;;;;;;5097268;28;20114;-28
2023/08/01 12:10:44;;;;;;;5.03;3.85;;;;;;;;;;5096994;28;20052;-30
2023/08/01 12:13:23;;;;;;;12.68;3.88;;;;;;;;;;5096720;28;20035;-32
2023/08/01 12:15:49;;;;;;;9.48;3.88;;;;;;;;;;5096798;28;20016;-28
2023/08/01 12:18:30;;;;;;;11.32;4.68;;;;;;;;;;5096412;28;20120;-28
2023/08/01 12:20:56;;;;;;;6.22;3.83;;;;;;;;;;5097028;28;20021;-31
2023/08/01 12:23:22;;;;;;;9.68;4.13;;;;;;;;;;5096874;28;20124;-32
2023/08/01 12:25:49;;;;;;;8.30;4.28;;;;;;;;;;5096849;28;20363;-28
2023/08/01 12:28:15;;;;;;;11.45;5.63;;;;;;;;;;5096554;28;20032;-27
2023/08/01 12:30:42;;;;;;;5.80;3.47;;;;;;;;;;5096869;28;20035;-29
2023/08/01 12:33:09;;;;;;;11.95;4.07;;;;;;;;;;5096633;28;20351;-30
2023/08/01 12:35:35;;;;;;;6.63;3.63;;;;;;;;;;5096608;28;20052;-27
2023/08/01 12:38:01;;;;;;;13.32;4.38;;;;;;;;;;5096371;28;20030;-27
2023/08/01 12:40:27;;;;;;;9.75;4.82;;;;;;;;;;5096673;28;20020;-31
2023/08/01 12:42:54;;;;;;;13.45;4.32;;;;;;;;;;5096318;28;20020;-31
2023/08/01 12:45:20;;;;;;;12.43;5.38;;;;;;;;;;5096578;28;20024;-32
2023/08/01 12:47:46;;;;;;;7.80;3.90;;;;;;;;;;5096644;28;20475;-29
2023/08/01 12:50:13;;;;;;;9.98;3.80;;;;;;;;;;5096096;28;20412;-30
2023/08/01 12:52:39;;;;;;;8.98;3.70;;;;;;;;;;5096161;28;20043;-31
2023/08/01 12:55:05;;;;;;;6.82;4.32;;;;;;;;;;5096453;28;20038;-31
2023/08/01 12:57:31;;;;;;;13.70;4.75;;;;;;;;;;5095881;28;20035;-30
2023/08/01 12:59:57;;;;;;;7.57;4.22;;;;;;;;;;5095923;28;20048;-31
2023/08/01 13:02:23;;;;;;;8.10;4.00;;;;;;;;;;5095615;28;20095;-30
2023/08/01 13:04:49;;;;;;;12.10;4.38;;;;;;;;;;5096225;28;20034;-31
2023/08/01 13:07:15;;;;;;;9.52;4.35;;;;;;;;;;5095860;28;20051;-30
2023/08/01 13:09:42;;;;;;;6.97;4.10;;;;;;;;;;5095795;28;20097;-31
2023/08/01 13:12:08;;;;;;;8.98;4.78;;;;;;;;;;5095975;28;20459;-31
2023/08/01 13:14:34;;;;;;;9.98;3.95;;;;;;;;;;5095689;28;20036;-28
2023/08/01 13:17:00;;;;;;;9.95;4.25;;;;;;;;;;5094728;28;20107;-28
2023/08/01 13:19:26;;;;;;;9.02;4.82;;;;;;;;;;5095859;28;20028;-29
2023/08/01 13:21:52;;;;;;;11.07;4.07;;;;;;;;;;5095434;28;20024;-30
2023/08/01 13:24:19;;;;;;;8.65;4.80;;;;;;;;;;5095585;28;20020;-31
2023/08/01 13:26:45;;;;;;;13.27;4.32;;;;;;;;;;5095469;28;20165;-31
2023/08/01 13:29:12;;;;;;;7.30;3.65;;;;;;;;;;5095455;28;20024;-32
2023/08/01 13:31:38;;;;;;;11.57;5.05;;;;;;;;;;5095706;28;20351;-30
2023/08/01 13:34:04;;;;;;;8.25;4.22;;;;;;;;;;5096146;28;20028;-29
2023/08/01 13:36:30;;;;;;;8.90;4.65;;;;;;;;;;5095486;28;20024;-34
2023/08/01 13:38:56;;;;;;;7.40;3.42;;;;;;;;;;5095604;28;20032;-29
2023/08/01 13:41:22;;;;;;;6.95;3.83;;;;;;;;;;5095364;28;20020;-32
2023/08/01 13:43:48;;;;;;;7.40;4.45;;;;;;;;;;5095260;28;20056;-32
2023/08/01 13:46:21;;;;;;;8.57;3.72;;;;;;;;;;5095060;28;20026;-31
2023/08/01 13:48:47;;;;;;;5.38;3.67;;;;;;;;;;5095615;28;20043;-28
2023/08/01 13:51:14;;;;;;;9.63;4.50;;;;;;;;;;5094908;28;20115;-31
2023/08/01 13:53:43;;;;;;;8.38;4.85;;;;;;;;;;5094954;28;20038;-30
2023/08/01 13:56:12;;;;;;;10.43;3.70;;;;;;;;;;5095254;28;20085;-29
2023/08/01 13:58:40;;;;;;;16.92;4.63;;;;;;;;;;5095234;28;20436;-28
2023/08/01 14:01:08;;;;;;;15.10;4.90;;;;;;;;;;5095158;28;20450;-28
2023/08/01 14:03:34;;;;;;;12.35;4.13;;;;;;;;;;5094970;28;20036;-28
2023/08/01 14:06:07;;;;;;;9.05;3.85;;;;;;;;;;5095263;28;20020;-27
2023/08/01 14:08:33;;;;;;;17.77;4.63;;;;;;;;;;5095567;28;20443;-30
2023/08/01 14:11:00;;;;;;;12.63;3.78;;;;;;;;;;5095045;28;20115;-28
2023/08/01 14:13:26;;;;;;;6.85;3.95;;;;;;;;;;5095109;28;20056;-29
2023/08/01 14:15:52;;;;;;;8.73;4.05;;;;;;;;;;5095405;28;20103;-31
2023/08/01 14:18:18;;;;;;;6.95;3.58;;;;;;;;;;5095105;28;20047;-32
2023/08/01 14:20:44;;;;;;;12.82;4.22;;;;;;;;;;5094643;28;20013;-29
2023/08/01 14:23:10;;;;;;;9.13;3.78;;;;;;;;;;5094705;28;20031;-32
2023/08/01 14:25:36;;;;;;;8.25;3.85;;;;;;;;;;5094754;28;20042;-28
2023/08/01 14:28:03;;;;;;;13.95;4.78;;;;;;;;;;5094654;28;20030;-32
2023/08/01 14:30:30;;;;;;;8.35;3.90;;;;;;;;;;5094971;28;20024;-31
2023/08/01 14:33:06;;;;;;;7.47;3.45;;;;;;;;;;5094793;28;20039;-29
2023/08/01 14:35:33;;;;;;;9.18;3.95;;;;;;;;;;5094505;28;20035;-28
2023/08/01 14:37:59;;;;;;;6.25;3.28;;;;;;;;;;5095020;28;20158;-28